createdAt,value
2018-06-15T00:00:09.473Z,72.17
2018-06-15T00:02:37.569Z,71.72
2018-06-15T00:05:05.802Z,72.27
2018-06-15T00:07:33.620Z,72.78
2018-06-15T00:10:01.638Z,71.81
2018-06-15T00:12:29.573Z,72.32
2018-06-15T00:14:57.507Z,72.29
2018-06-15T00:17:25.353Z,70.77
2018-06-15T00:19:53.259Z,67.91
2018-06-15T00:22:21.120Z,70.05
2018-06-15T00:24:49.037Z,72.44
2018-06-15T00:27:16.950Z,69.52
2018-06-15T00:29:44.818Z,70.69
2018-06-15T00:32:12.729Z,68.16
2018-06-15T00:34:40.608Z,70.80
2018-06-15T00:37:08.469Z,72.35
2018-06-15T00:39:36.365Z,72.87
2018-06-15T00:42:04.227Z,71.10
2018-06-15T00:44:32.133Z,70.27
2018-06-15T00:47:00.049Z,69.74
2018-06-15T00:49:27.890Z,68.82
2018-06-15T00:51:55.880Z,72.30
2018-06-15T00:54:23.784Z,68.81
2018-06-15T00:57:09.021Z,73.13
2018-06-15T00:59:36.890Z,70.77
2018-06-15T01:02:04.801Z,69.95
2018-06-15T01:04:32.739Z,70.98
2018-06-15T01:07:00.613Z,70.42
2018-06-15T01:09:28.444Z,72.96
2018-06-15T01:11:56.369Z,74.25
2018-06-15T01:14:24.324Z,74.98
2018-06-15T01:16:52.300Z,75.63
2018-06-15T01:19:20.269Z,72.58
2018-06-15T01:21:48.144Z,71.21
2018-06-15T01:24:16.100Z,72.20
2018-06-15T01:26:44.090Z,71.45
2018-06-15T01:29:11.945Z,70.67
2018-06-15T01:31:39.885Z,70.50
2018-06-15T01:34:07.780Z,68.33
2018-06-15T01:36:35.587Z,70.40
2018-06-15T01:39:06.200Z,70.04
2018-06-15T01:41:34.436Z,71.04
2018-06-15T01:44:02.249Z,73.97
2018-06-15T01:46:30.197Z,75.22
2018-06-15T01:48:58.111Z,72.41
2018-06-15T01:51:26.049Z,69.50
2018-06-15T01:53:53.844Z,70.56
2018-06-15T01:56:21.688Z,69.96
2018-06-15T01:58:49.620Z,70.88
2018-06-15T02:01:17.570Z,71.72
2018-06-15T02:03:45.395Z,70.91
2018-06-15T02:06:13.330Z,71.29
2018-06-15T02:08:41.492Z,72.84
2018-06-15T02:11:09.328Z,70.60
2018-06-15T02:13:37.227Z,74.39
2018-06-15T02:16:05.284Z,72.61
2018-06-15T02:18:33.397Z,71.89
2018-06-15T02:21:01.262Z,72.77
2018-06-15T02:23:29.581Z,71.73
2018-06-15T02:25:57.541Z,71.36
2018-06-15T02:28:25.383Z,71.80
2018-06-15T02:30:53.234Z,73.76
2018-06-15T02:33:21.262Z,71.28
2018-06-15T02:35:49.202Z,72.38
2018-06-15T02:38:17.289Z,69.60
2018-06-15T02:40:45.194Z,71.42
2018-06-15T02:43:13.005Z,76.91
2018-06-15T02:45:40.865Z,70.30
2018-06-15T02:48:08.769Z,71.71
2018-06-15T02:50:36.641Z,70.17
2018-06-15T02:53:04.725Z,70.86
2018-06-15T02:55:33.056Z,71.78
2018-06-15T02:58:01.092Z,68.69
2018-06-15T03:00:28.905Z,70.14
2018-06-15T03:02:56.894Z,71.24
2018-06-15T03:05:24.744Z,72.28
2018-06-15T03:07:52.603Z,73.10
2018-06-15T03:10:20.429Z,70.75
2018-06-15T03:12:48.346Z,71.89
2018-06-15T03:15:16.373Z,71.60
2018-06-15T03:17:44.248Z,71.77
2018-06-15T03:20:12.162Z,69.64
2018-06-15T03:22:40.001Z,73.26
2018-06-15T03:25:07.901Z,69.92
2018-06-15T03:27:35.820Z,71.47
2018-06-15T03:30:03.773Z,72.38
2018-06-15T03:32:31.616Z,73.16
2018-06-15T03:34:59.639Z,71.87
2018-06-15T03:37:27.509Z,72.74
2018-06-15T03:39:55.477Z,75.34
2018-06-15T03:42:23.393Z,76.15
2018-06-15T03:44:51.250Z,71.63
2018-06-15T03:47:19.172Z,71.99
2018-06-15T03:49:47.078Z,70.74
2018-06-15T03:52:15.041Z,72.23
2018-06-15T03:54:42.908Z,73.69
2018-06-15T03:57:10.831Z,73.51
2018-06-15T03:59:38.679Z,72.96
2018-06-15T04:02:06.609Z,72.51
2018-06-15T04:04:34.557Z,73.37
2018-06-15T04:07:02.449Z,72.12
2018-06-15T04:09:30.338Z,71.27
2018-06-15T04:11:58.244Z,73.82
2018-06-15T04:14:26.137Z,72.61
2018-06-15T04:16:55.073Z,70.63
2018-06-15T04:19:23.058Z,70.29
2018-06-15T04:21:50.889Z,69.65
2018-06-15T04:24:18.740Z,70.59
2018-06-15T04:26:46.715Z,71.18
2018-06-15T04:29:14.606Z,70.74
2018-06-15T04:31:42.449Z,69.85
2018-06-15T04:34:10.388Z,69.39
2018-06-15T04:36:38.320Z,69.12
2018-06-15T04:39:08.081Z,69.67
2018-06-15T04:41:36.052Z,68.60
2018-06-15T04:44:03.986Z,68.84
2018-06-15T04:46:31.869Z,69.71
2018-06-15T04:48:59.682Z,71.70
2018-06-15T04:51:27.818Z,70.50
2018-06-15T04:53:55.668Z,70.94
2018-06-15T04:56:23.581Z,72.16
2018-06-15T04:58:51.304Z,68.99
2018-06-15T05:01:19.289Z,70.97
2018-06-15T05:03:47.165Z,72.30
2018-06-15T05:06:15.094Z,70.39
2018-06-15T05:08:43.056Z,71.38
2018-06-15T05:11:10.869Z,71.72
2018-06-15T05:13:38.704Z,70.63
2018-06-15T05:16:06.604Z,71.75
2018-06-15T05:18:34.505Z,73.19
2018-06-15T05:21:02.604Z,70.82
2018-06-15T05:23:30.693Z,70.34
2018-06-15T05:25:58.643Z,68.99
2018-06-15T05:28:26.495Z,69.20
2018-06-15T05:30:54.365Z,69.63
2018-06-15T05:33:22.824Z,71.19
2018-06-15T05:35:50.717Z,70.94
2018-06-15T05:38:18.591Z,69.09
2018-06-15T05:40:46.536Z,67.81
2018-06-15T05:43:14.770Z,67.74
2018-06-15T05:45:43.228Z,67.61
2018-06-15T05:48:11.421Z,67.84
2018-06-15T05:50:39.320Z,65.71
2018-06-15T05:53:08.672Z,66.88
2018-06-15T05:55:36.778Z,68.17
2018-06-15T05:58:05.375Z,65.78
2018-06-15T06:00:34.425Z,66.04
2018-06-15T06:03:02.940Z,66.72
2018-06-15T06:05:30.888Z,66.21
2018-06-15T06:07:58.897Z,66.42
2018-06-15T06:10:27.012Z,65.74
2018-06-15T06:12:54.945Z,65.27
2018-06-15T06:15:24.755Z,65.53
2018-06-15T06:17:52.708Z,64.76
2018-06-15T06:20:20.588Z,64.12
2018-06-15T06:22:48.464Z,64.17
2018-06-15T06:25:16.369Z,64.69
2018-06-15T06:27:44.312Z,64.13
2018-06-15T06:30:12.178Z,63.86
2018-06-15T06:32:40.206Z,63.42
2018-06-15T06:35:08.038Z,63.18
2018-06-15T06:37:35.860Z,63.14
2018-06-15T06:40:03.894Z,63.38
2018-06-15T06:42:31.790Z,62.77
2018-06-15T06:44:59.689Z,63.38
2018-06-15T06:47:27.552Z,62.70
2018-06-15T06:49:55.401Z,62.38
2018-06-15T06:52:23.296Z,61.84
2018-06-15T06:54:51.821Z,62.13
2018-06-15T06:57:19.764Z,61.04
2018-06-15T06:59:47.665Z,60.62
2018-06-15T07:02:15.541Z,60.11
2018-06-15T07:04:43.501Z,60.22
2018-06-15T07:07:11.341Z,60.58
2018-06-15T07:09:39.341Z,59.77
2018-06-15T07:12:07.341Z,59.75
2018-06-15T07:14:35.151Z,59.22
2018-06-15T07:17:03.033Z,58.53
2018-06-15T07:19:30.893Z,58.34
2018-06-15T07:21:58.763Z,57.21
2018-06-15T07:24:26.725Z,56.86
2018-06-15T07:26:54.607Z,54.97
2018-06-15T07:29:22.563Z,55.84
2018-06-15T07:31:50.409Z,55.30
2018-06-15T07:34:18.323Z,54.83
2018-06-15T07:36:46.181Z,54.13
2018-06-15T07:39:14.042Z,52.82
2018-06-15T07:41:41.957Z,53.37
2018-06-15T07:44:09.885Z,53.30
2018-06-15T07:46:37.821Z,52.53
2018-06-15T07:49:05.685Z,51.72
2018-06-15T07:51:33.524Z,52.42
2018-06-15T07:54:01.416Z,51.64
2018-06-15T07:56:29.251Z,51.68
2018-06-15T07:58:57.101Z,51.53
2018-06-15T08:01:25.045Z,51.76
2018-06-15T08:04:01.949Z,50.77
2018-06-15T08:06:30.221Z,51.13
2018-06-15T08:08:58.838Z,49.66
2018-06-15T08:11:26.677Z,50.95
2018-06-15T08:13:54.577Z,51.30
2018-06-15T08:16:22.464Z,51.31
2018-06-15T08:18:50.337Z,50.45
2018-06-15T08:21:18.153Z,52.11
2018-06-15T08:23:46.174Z,51.43
2018-06-15T08:26:14.133Z,51.28
2018-06-15T08:28:42.093Z,51.09
2018-06-15T08:31:09.970Z,50.84
2018-06-15T08:33:37.818Z,50.29
2018-06-15T08:36:05.856Z,50.55
2018-06-15T08:38:33.700Z,48.75
2018-06-15T08:41:01.656Z,50.00
2018-06-15T08:43:29.513Z,49.60
2018-06-15T08:45:57.369Z,46.22
2018-06-15T08:48:25.298Z,48.89
2018-06-15T08:50:53.130Z,48.49
2018-06-15T08:53:21.070Z,47.48
2018-06-15T08:55:48.909Z,47.20
2018-06-15T08:58:16.742Z,46.00
2018-06-15T09:00:44.556Z,46.39
2018-06-15T09:03:12.464Z,46.45
2018-06-15T09:05:40.340Z,45.98
2018-06-15T09:08:08.164Z,45.62
2018-06-15T09:10:36.064Z,45.04
2018-06-15T09:13:03.998Z,44.82
2018-06-15T09:15:31.861Z,44.28
2018-06-15T09:17:59.832Z,43.21
2018-06-15T09:20:27.707Z,42.34
2018-06-15T09:22:55.481Z,41.41
2018-06-15T09:25:23.271Z,41.46
2018-06-15T09:27:51.097Z,41.36
2018-06-15T09:30:21.023Z,40.84
2018-06-15T09:32:48.826Z,40.38
2018-06-15T09:35:16.655Z,40.22
2018-06-15T09:37:44.532Z,39.07
2018-06-15T09:40:12.382Z,38.76
2018-06-15T09:42:40.300Z,39.23
2018-06-15T09:45:08.228Z,38.79
2018-06-15T09:47:36.057Z,35.78
2018-06-15T09:50:04.135Z,36.65
2018-06-15T09:52:31.965Z,33.92
2018-06-15T09:54:59.773Z,33.42
2018-06-15T09:57:27.717Z,35.56
2018-06-15T09:59:55.648Z,34.61
2018-06-15T10:02:23.561Z,32.77
2018-06-15T10:04:51.405Z,31.51
2018-06-15T10:07:19.357Z,32.05
2018-06-15T10:09:47.137Z,28.91
2018-06-15T10:12:14.956Z,30.24
2018-06-15T10:14:42.785Z,29.48
2018-06-15T10:17:10.673Z,30.64
2018-06-15T10:19:38.427Z,31.01
2018-06-15T10:22:06.433Z,31.02
2018-06-15T10:24:34.314Z,30.29
2018-06-15T10:27:02.133Z,31.38
2018-06-15T10:29:30.029Z,32.36
2018-06-15T10:31:57.952Z,32.70
2018-06-15T10:34:25.837Z,32.23
2018-06-15T10:36:53.656Z,32.98
2018-06-15T10:39:21.631Z,32.42
2018-06-15T10:41:49.590Z,33.58
2018-06-15T10:44:17.475Z,33.03
2018-06-15T10:46:45.352Z,33.70
2018-06-15T10:49:13.180Z,33.58
2018-06-15T10:51:41.109Z,33.45
2018-06-15T10:54:09.024Z,32.85
2018-06-15T10:56:36.841Z,34.19
2018-06-15T10:59:04.833Z,33.51
2018-06-15T11:01:32.660Z,33.15
2018-06-15T11:04:00.566Z,32.74
2018-06-15T11:06:28.389Z,33.45
2018-06-15T11:08:56.177Z,31.76
2018-06-15T11:11:24.099Z,32.96
2018-06-15T11:13:51.925Z,33.22
2018-06-15T11:16:19.820Z,33.94
2018-06-15T11:18:48.004Z,31.68
2018-06-15T11:21:15.811Z,33.55
2018-06-15T11:23:43.635Z,32.58
2018-06-15T11:26:11.607Z,32.52
2018-06-15T11:28:39.481Z,32.83
2018-06-15T11:31:07.369Z,33.00
2018-06-15T11:33:35.356Z,32.64
2018-06-15T11:36:03.253Z,33.67
2018-06-15T11:38:31.208Z,32.82
2018-06-15T11:40:59.096Z,33.47
2018-06-15T11:43:26.907Z,32.80
2018-06-15T11:45:54.763Z,32.46
2018-06-15T11:48:22.615Z,30.54
2018-06-15T11:50:50.455Z,30.89
2018-06-15T11:53:18.344Z,30.35
2018-06-15T11:55:46.250Z,31.57
2018-06-15T11:58:14.082Z,31.38
2018-06-15T12:00:41.956Z,31.27
2018-06-15T12:03:09.802Z,32.39
2018-06-15T12:05:37.673Z,32.01
2018-06-15T12:08:05.836Z,31.21
2018-06-15T12:10:33.773Z,29.26
2018-06-15T12:13:01.665Z,29.99
2018-06-15T12:15:29.597Z,30.43
2018-06-15T12:18:01.443Z,30.57
2018-06-15T12:20:29.370Z,30.16
2018-06-15T12:22:57.301Z,29.86
2018-06-15T12:25:25.148Z,30.23
2018-06-15T12:27:52.982Z,30.19
2018-06-15T12:30:20.807Z,30.61
2018-06-15T12:32:48.684Z,30.76
2018-06-15T12:35:16.522Z,31.04
2018-06-15T12:37:44.377Z,31.09
2018-06-15T12:40:12.293Z,31.48
2018-06-15T12:42:40.146Z,32.48
2018-06-15T12:45:07.973Z,32.56
2018-06-15T12:47:35.914Z,32.84
2018-06-15T12:50:03.886Z,33.05
2018-06-15T12:52:31.761Z,33.57
2018-06-15T12:54:59.629Z,33.96
2018-06-15T12:57:27.524Z,33.65
2018-06-15T12:59:58.034Z,34.19
2018-06-15T13:02:25.972Z,34.51
2018-06-15T13:04:53.858Z,34.77
2018-06-15T13:07:21.680Z,34.70
2018-06-15T13:09:49.493Z,33.77
2018-06-15T13:12:17.340Z,33.98
2018-06-15T13:14:45.362Z,34.42
2018-06-15T13:17:13.249Z,34.08
2018-06-15T13:19:41.085Z,34.26
2018-06-15T13:22:08.932Z,32.79
2018-06-15T13:24:36.773Z,32.15
2018-06-15T13:27:04.647Z,32.82
2018-06-15T13:29:32.531Z,32.49
2018-06-15T13:32:00.357Z,31.85
2018-06-15T13:34:28.190Z,32.79
2018-06-15T13:36:56.338Z,31.16
2018-06-15T13:39:24.201Z,31.78
2018-06-15T13:41:52.064Z,30.68
2018-06-15T13:44:19.913Z,31.30
2018-06-15T13:46:47.729Z,32.74
2018-06-15T13:49:15.553Z,32.34
2018-06-15T13:51:43.430Z,30.81
2018-06-15T13:54:11.273Z,30.95
2018-06-15T13:56:39.141Z,31.97
2018-06-15T13:59:13.507Z,31.34
2018-06-15T14:01:41.641Z,30.94
2018-06-15T14:04:09.638Z,31.46
2018-06-15T14:06:37.585Z,31.65
2018-06-15T14:09:09.974Z,31.42
2018-06-15T14:11:38.542Z,29.95
2018-06-15T14:14:06.401Z,30.27
2018-06-15T14:16:34.417Z,30.79
2018-06-15T14:19:02.449Z,31.56
2018-06-15T14:21:30.372Z,31.15
2018-06-15T14:23:58.266Z,30.13
2018-06-15T14:26:26.121Z,31.32
2018-06-15T14:28:54.062Z,31.51
2018-06-15T14:31:21.905Z,31.95
2018-06-15T14:33:49.730Z,32.24
2018-06-15T14:36:18.576Z,31.22
2018-06-15T14:38:48.465Z,32.76
2018-06-15T14:41:19.703Z,32.23
2018-06-15T14:43:47.789Z,32.28
2018-06-15T14:46:15.668Z,33.17
2018-06-15T14:48:43.497Z,33.33
2018-06-15T14:51:11.297Z,34.16
2018-06-15T14:53:39.212Z,34.58
2018-06-15T14:56:07.085Z,34.86
2018-06-15T14:58:34.975Z,34.60
2018-06-15T15:01:02.867Z,35.60
2018-06-15T15:03:30.750Z,35.71
2018-06-15T15:06:02.783Z,36.02
2018-06-15T15:08:30.673Z,35.91
2018-06-15T15:10:58.646Z,35.11
2018-06-15T15:13:26.489Z,36.30
2018-06-15T15:15:54.405Z,35.41
2018-06-15T15:18:22.337Z,36.44
2018-06-15T15:20:50.910Z,37.23
2018-06-15T15:23:20.108Z,38.06
2018-06-15T15:25:49.435Z,37.97
2018-06-15T15:28:18.954Z,38.49
2018-06-15T15:30:47.390Z,38.83
2018-06-15T15:33:16.302Z,39.61
2018-06-15T15:35:46.701Z,39.65
2018-06-15T15:38:14.649Z,39.86
2018-06-15T15:40:48.668Z,39.73
2018-06-15T15:43:17.198Z,40.44
2018-06-15T15:45:50.436Z,40.50
2018-06-15T15:48:23.583Z,40.70
2018-06-15T15:50:51.699Z,40.87
2018-06-15T15:53:19.791Z,41.39
2018-06-15T15:55:47.638Z,41.60
2018-06-15T15:58:15.565Z,41.87
2018-06-15T16:00:46.691Z,41.25
2018-06-15T16:03:15.171Z,41.69
2018-06-15T16:05:44.442Z,41.06
2018-06-15T16:08:12.377Z,40.92
2018-06-15T16:10:40.522Z,41.86
2018-06-15T16:13:08.410Z,41.46
2018-06-15T16:15:36.316Z,41.92
2018-06-15T16:18:04.421Z,41.80
2018-06-15T16:20:32.552Z,42.08
2018-06-15T16:23:00.437Z,42.28
2018-06-15T16:25:28.293Z,42.58
2018-06-15T16:27:56.160Z,42.64
2018-06-15T16:30:28.211Z,43.05
2018-06-15T16:32:56.108Z,43.16
2018-06-15T16:35:23.997Z,43.25
2018-06-15T16:37:51.896Z,43.43
2018-06-15T16:40:19.989Z,43.45
2018-06-15T16:42:47.805Z,43.09
2018-06-15T16:45:15.689Z,43.79
2018-06-15T16:47:43.645Z,43.83
2018-06-15T16:50:11.540Z,43.99
2018-06-15T16:52:39.404Z,43.58
2018-06-15T16:55:07.208Z,43.55
2018-06-15T16:57:35.093Z,43.78
2018-06-15T17:00:03.051Z,44.27
2018-06-15T17:02:30.947Z,44.58
2018-06-15T17:04:58.859Z,44.68
2018-06-15T17:07:26.697Z,44.55
2018-06-15T17:09:54.830Z,44.85
2018-06-15T17:12:24.469Z,44.90
2018-06-15T17:14:52.529Z,44.28
2018-06-15T17:17:20.471Z,44.46
2018-06-15T17:19:48.466Z,44.64
2018-06-15T17:22:16.354Z,44.95
2018-06-15T17:24:44.292Z,44.45
2018-06-15T17:27:12.187Z,44.41
2018-06-15T17:29:39.977Z,44.97
2018-06-15T17:32:08.584Z,44.58
2018-06-15T17:34:36.466Z,44.70
2018-06-15T17:37:04.547Z,45.05
2018-06-15T17:39:32.478Z,45.63
2018-06-15T17:42:00.412Z,45.47
2018-06-15T17:44:28.368Z,45.12
2018-06-15T17:46:56.277Z,45.40
2018-06-15T17:49:24.165Z,45.82
2018-06-15T17:51:51.979Z,45.36
2018-06-15T17:54:19.997Z,45.68
2018-06-15T17:56:47.908Z,45.63
2018-06-15T17:59:15.809Z,46.27
2018-06-15T18:01:43.636Z,45.75
2018-06-15T18:04:11.588Z,46.29
2018-06-15T18:06:39.545Z,46.21
2018-06-15T18:09:09.341Z,45.96
2018-06-15T18:11:37.294Z,46.81
2018-06-15T18:14:05.252Z,46.84
2018-06-15T18:16:33.451Z,47.10
2018-06-15T18:19:01.297Z,46.97
2018-06-15T18:21:29.113Z,47.25
2018-06-15T18:23:57.089Z,47.12
2018-06-15T18:26:25.013Z,47.44
2018-06-15T18:28:52.885Z,46.90
2018-06-15T18:31:20.840Z,46.80
2018-06-15T18:33:49.758Z,47.51
2018-06-15T18:36:17.694Z,47.38
2018-06-15T18:38:45.585Z,46.92
2018-06-15T18:41:13.624Z,47.79
2018-06-15T18:43:41.581Z,48.04
2018-06-15T18:46:09.523Z,47.52
2018-06-15T18:48:37.417Z,47.51
2018-06-15T18:51:05.325Z,47.70
2018-06-15T18:53:33.209Z,48.19
2018-06-15T18:56:01.182Z,47.80
2018-06-15T18:58:29.097Z,48.34
2018-06-15T19:00:57.052Z,48.24
2018-06-15T19:03:24.960Z,48.30
2018-06-15T19:05:52.780Z,48.00
2018-06-15T19:08:20.670Z,48.54
2018-06-15T19:10:48.501Z,48.62
2018-06-15T19:13:16.413Z,48.93
2018-06-15T19:15:44.322Z,48.49
2018-06-15T19:18:15.663Z,49.03
2018-06-15T19:20:43.646Z,48.59
2018-06-15T19:23:11.538Z,49.49
2018-06-15T19:25:39.417Z,48.99
2018-06-15T19:28:07.381Z,49.78
2018-06-15T19:30:35.234Z,50.24
2018-06-15T19:33:03.184Z,50.60
2018-06-15T19:35:31.081Z,50.84
2018-06-15T19:37:58.949Z,50.91
2018-06-15T19:40:26.786Z,50.84
2018-06-15T19:42:54.616Z,51.10
2018-06-15T19:45:22.438Z,51.00
2018-06-15T19:47:50.379Z,51.11
2018-06-15T19:50:18.233Z,50.76
2018-06-15T19:52:46.112Z,51.31
2018-06-15T19:55:13.937Z,51.47
2018-06-15T19:57:41.877Z,51.22
2018-06-15T20:00:09.830Z,52.16
2018-06-15T20:02:37.693Z,52.30
2018-06-15T20:05:05.608Z,51.95
2018-06-15T20:07:33.462Z,51.50
2018-06-15T20:10:01.289Z,51.89
2018-06-15T20:12:29.160Z,52.08
2018-06-15T20:14:57.053Z,52.81
2018-06-15T20:17:27.585Z,52.69
2018-06-15T20:19:55.474Z,53.01
2018-06-15T20:22:25.258Z,53.97
2018-06-15T20:24:53.204Z,53.15
2018-06-15T20:27:21.688Z,53.65
2018-06-15T20:29:50.800Z,53.74
2018-06-15T20:32:23.427Z,53.48
2018-06-15T20:34:51.905Z,54.09
2018-06-15T20:37:22.866Z,54.12
2018-06-15T20:39:50.737Z,54.14
2018-06-15T20:42:25.839Z,53.55
2018-06-15T20:44:54.372Z,53.35
2018-06-15T20:47:23.454Z,54.82
2018-06-15T20:49:52.440Z,55.07
2018-06-15T20:52:20.386Z,54.41
2018-06-15T20:54:50.305Z,54.11
2018-06-15T20:57:18.866Z,55.60
2018-06-15T20:59:49.638Z,55.56
2018-06-15T21:02:20.210Z,55.47
2018-06-15T21:04:54.284Z,57.93
2018-06-15T21:07:22.267Z,57.69
2018-06-15T21:09:50.388Z,57.96
2018-06-15T21:12:18.255Z,58.43
2018-06-15T21:14:52.953Z,58.89
2018-06-15T21:17:21.446Z,56.38
2018-06-15T21:19:49.493Z,56.84
2018-06-15T21:22:17.464Z,57.59
2018-06-15T21:24:47.125Z,60.03
2018-06-15T21:27:17.282Z,58.49
2018-06-15T21:29:48.565Z,59.16
2018-06-15T21:32:18.734Z,57.63
2018-06-15T21:34:46.877Z,59.62
2018-06-15T21:37:23.822Z,60.67
2018-06-15T21:39:52.147Z,57.76
2018-06-15T21:42:20.053Z,61.59
2018-06-15T21:44:52.461Z,59.91
2018-06-15T21:47:24.159Z,58.96
2018-06-15T21:49:55.040Z,61.74
2018-06-15T21:52:22.928Z,60.92
2018-06-15T21:54:56.231Z,61.41
2018-06-15T21:57:29.831Z,62.66
2018-06-15T21:59:59.567Z,62.42
2018-06-15T22:02:27.505Z,62.59
2018-06-15T22:04:55.425Z,64.28
2018-06-15T22:07:24.166Z,64.50
2018-06-15T22:09:52.041Z,65.38
2018-06-15T22:12:22.158Z,66.84
2018-06-15T22:14:50.105Z,67.15
2018-06-15T22:17:17.996Z,66.44
2018-06-15T22:19:47.081Z,68.23
2018-06-15T22:22:14.952Z,67.24
2018-06-15T22:24:42.786Z,67.05
2018-06-15T22:27:12.777Z,67.03
2018-06-15T22:29:40.851Z,68.84
2018-06-15T22:32:08.829Z,68.33
2018-06-15T22:34:36.653Z,68.35
2018-06-15T22:37:04.517Z,67.74
2018-06-15T22:39:32.470Z,63.69
2018-06-15T22:42:00.335Z,64.64
2018-06-15T22:44:28.217Z,67.64
2018-06-15T22:46:56.911Z,67.77
2018-06-15T22:49:29.726Z,67.86
2018-06-15T22:52:03.122Z,69.75
2018-06-15T22:54:31.009Z,66.98
2018-06-15T22:56:58.904Z,69.75
2018-06-15T22:59:26.853Z,69.27
2018-06-15T23:01:54.790Z,69.95
2018-06-15T23:04:22.637Z,69.38
2018-06-15T23:06:50.609Z,71.01
2018-06-15T23:09:18.544Z,71.19
2018-06-15T23:11:46.377Z,70.58
2018-06-15T23:14:14.330Z,68.83
2018-06-15T23:16:42.293Z,72.50
2018-06-15T23:19:10.199Z,72.42
2018-06-15T23:21:38.113Z,72.76
2018-06-15T23:24:06.087Z,70.04
2018-06-15T23:26:33.928Z,71.26
2018-06-15T23:29:01.793Z,68.45
2018-06-15T23:31:29.613Z,71.02
2018-06-15T23:33:57.539Z,70.35
2018-06-15T23:36:25.353Z,69.69
2018-06-15T23:38:53.238Z,69.95
2018-06-15T23:41:21.110Z,69.61
2018-06-15T23:43:49.048Z,70.54
2018-06-15T23:46:16.959Z,68.99
2018-06-15T23:48:44.785Z,69.27
2018-06-15T23:51:12.675Z,71.16
2018-06-15T23:53:40.572Z,69.73
2018-06-15T23:56:08.477Z,71.26
2018-06-15T23:58:36.395Z,72.76
